Stations météo

réclame
Mon MeteoGroup
Palacios de la Sierra, Espagne (8149): Température de l'air & dewpoint: 17.01.2018 08:00:00 - 23.01.2018 08:00:00 (CET)Palacios de la Sierra, Espagne (8149): Vitesse du vent & gusts: 17.01.2018 08:00:00 - 23.01.2018 08:00:00 (CET)Palacios de la Sierra, Espagne (8149): Direction du vent: 17.01.2018 08:00:00 - 23.01.2018 08:00:00 (CET)Palacios de la Sierra, Espagne (8149): visibility: 17.01.2018 08:00:00 - 23.01.2018 08:00:00 (CET)Palacios de la Sierra, Espagne (8149): Ensoleillement: 17.01.2018 08:00:00 - 23.01.2018 08:00:00 (CET)Palacios de la Sierra, Espagne (8149): Quantités de précipitations: 17.01.2018 08:00:00 - 23.01.2018 08:00:00 (CET)
Date & Time tt [°C] td [°C] ff [km/h] ff [knt] fx [km/h] fx [knt] dd vv [km] sd [min] rr [mm]
23.01.2018 08:00:00 -0,9 -1,4 6 3 10 5 ESE 0,6 0 0,0
23.01.2018 07:00:00 -0,6 -1,2 2 1 17 9 ESE 0,2 0 -
23.01.2018 06:00:00 0,2 -0,3 5 3 16 8 NW 0,2 0 0,0
23.01.2018 05:00:00 0,5 0,0 3 1 9 5 E 0,2 0 0,0
23.01.2018 04:00:00 1,0 0,2 2 1 9 5 SE 0,3 0 0,0
23.01.2018 03:00:00 0,9 0,2 6 3 10 5 S 0,4 0 0,0
23.01.2018 02:00:00 1,1 0,4 6 4 10 5 S 0,3 0 0,0
23.01.2018 01:00:00 0,9 0,2 4 2 12 6 S 0,1 0 -
23.01.2018 00:00:00 0,2 -0,5 4 2 14 8 SE 0,5 0 0,0
22.01.2018 23:00:00 -1,0 -2,0 2 1 9 5 SSE 6 0 0,0
22.01.2018 22:00:00 -0,3 -1,4 3 1 7 4 SW 6 0 0,0
22.01.2018 21:00:00 1,3 0,2 2 1 13 7 ESE 6 0 0,0
22.01.2018 20:00:00 3,3 1,5 2 1 8 5 E 14 0 0,0
22.01.2018 19:00:00 4,5 2,3 2 1 17 9 SSE 20 0 -
22.01.2018 18:00:00 5,6 2,9 7 4 25 14 W 20 8 0,0
22.01.2018 17:00:00 6,8 3,6 14 7 31 17 W 20 5 0,0
22.01.2018 16:00:00 6,9 3,2 14 8 28 15 NW 20 4 0,0
22.01.2018 15:00:00 6,8 3,4 16 9 28 15 W 20 0 0,0
22.01.2018 14:00:00 6,4 3,4 15 8 31 17 WNW 20 0 0,0
22.01.2018 13:00:00 5,9 3,4 12 7 29 16 WNW 20 0 -
22.01.2018 12:00:00 5,4 3,4 12 6 24 13 WNW 20 0 0,0
22.01.2018 11:00:00 5,2 3,2 16 9 26 14 W 20 0 0,0
22.01.2018 10:00:00 5,0 3,9 11 6 23 13 WNW 19 0 0,0
22.01.2018 09:00:00 4,7 3,6 9 5 - - W 9 0 0,0
22.01.2018 08:00:00 4,6 3,6 9 5 21 11 W 8 0 0,0
22.01.2018 07:00:00 4,5 3,4 9 5 18 10 W 2,5 0 -
22.01.2018 06:00:00 4,9 3,8 10 6 22 12 W 20 0 0,0
22.01.2018 05:00:00 5,2 4,1 10 5 20 11 W 20 0 0,0
22.01.2018 04:00:00 5,3 4,5 9 5 17 9 W 14 0 0,0
22.01.2018 03:00:00 5,2 4,3 7 4 13 7 W 2,8 0 0,0
22.01.2018 02:00:00 5,2 4,3 8 5 16 8 WNW 2,8 0 0,0
22.01.2018 01:00:00 5,4 4,5 11 6 20 11 W 2,1 0 -
22.01.2018 00:00:00 5,5 4,5 8 4 16 9 W 0,9 0 0,0
21.01.2018 23:00:00 5,5 4,5 4 2 14 8 W 5 0 0,0
21.01.2018 22:00:00 5,5 4,3 5 3 18 10 W 8 0 0,0
21.01.2018 21:00:00 5,5 4,1 10 5 19 10 W 20 0 0,0
21.01.2018 20:00:00 5,6 4,3 10 5 23 12 WNW 20 0 0,0
21.01.2018 19:00:00 5,7 4,1 11 6 21 11 WNW 20 0 -
21.01.2018 18:00:00 5,9 4,5 11 6 22 12 WNW 20 0 0,0
21.01.2018 17:00:00 6,4 4,6 12 6 29 15 WNW 20 0 0,0
21.01.2018 16:00:00 6,4 4,5 13 7 27 15 W 20 0 0,0
21.01.2018 15:00:00 6,4 4,8 16 9 27 15 WNW 20 0 0,0
21.01.2018 14:00:00 5,4 4,3 10 5 22 12 W 6 0 0,0
21.01.2018 13:00:00 5,2 4,1 11 6 24 13 W 4,7 0 -
21.01.2018 12:00:00 4,9 3,9 13 7 23 13 W 1,3 0 0,0
21.01.2018 11:00:00 5,5 4,3 7 4 21 11 WSW 20 0 0,0
21.01.2018 10:00:00 5,6 4,3 10 5 - - W 20 0 0,0
21.01.2018 09:00:00 4,5 3,6 9 5 27 15 W 20 0 0,2
21.01.2018 08:00:00 4,5 3,6 12 6 23 12 W 9 0 0,0
21.01.2018 07:00:00 4,5 3,6 9 5 14 8 WNW 7 0 -
21.01.2018 06:00:00 4,5 3,6 10 6 25 14 WNW 6 0 0,2
21.01.2018 05:00:00 4,7 3,6 10 5 23 13 WNW 7 0 0,0
21.01.2018 04:00:00 4,9 3,8 14 7 26 14 WNW 14 0 0,0
21.01.2018 03:00:00 5,1 3,6 14 8 23 12 W 20 0 0,0
21.01.2018 02:00:00 5,4 3,6 11 6 22 12 W 20 0 0,0
21.01.2018 01:00:00 - - - - - - - - - -
21.01.2018 00:00:00 5,8 3,2 9 5 24 13 W 20 0 0,0
20.01.2018 23:00:00 6,2 3,4 14 7 25 13 W 20 0 0,0
20.01.2018 22:00:00 6,7 3,6 8 4 25 14 W 20 0 0,0
20.01.2018 21:00:00 7,2 3,8 16 8 27 15 W 20 0 0,0
20.01.2018 20:00:00 7,3 3,8 8 5 15 8 W 20 0 0,0
20.01.2018 19:00:00 7,2 2,5 1 1 15 8 N 20 0 -
20.01.2018 18:00:00 7,5 2,1 5 3 18 10 WNW 20 1 0,0
20.01.2018 17:00:00 8,4 1,9 10 6 26 14 WNW 20 18 0,0
20.01.2018 16:00:00 8,6 1,3 18 10 31 17 WNW 20 58 0,0
20.01.2018 15:00:00 8,0 0,6 13 7 24 13 WNW 20 60 0,0
20.01.2018 14:00:00 6,8 -0,7 14 7 25 13 WNW 20 60 0,0
20.01.2018 13:00:00 6,6 -0,5 9 5 16 8 W 20 60 -
20.01.2018 12:00:00 4,6 -0,3 6 4 12 7 NW 20 49 0,0
20.01.2018 11:00:00 1,4 0,4 4 2 10 5 W 20 44 0,0
20.01.2018 10:00:00 -0,7 -1,4 5 3 18 10 S 8 11 0,0
20.01.2018 09:00:00 -2,5 -3,3 6 3 76 41 S 1,1 0 0,0
20.01.2018 08:00:00 -3,6 -4,8 2 1 15 8 SSE 20 0 0,0
20.01.2018 07:00:00 -3,0 -4,2 3 1 16 9 SSE 20 0 -
20.01.2018 06:00:00 -2,5 -3,3 8 4 14 8 S 20 0 0,0
20.01.2018 05:00:00 -3,5 -4,8 2 1 10 5 E 20 0 0,0
20.01.2018 04:00:00 -2,4 -3,3 2 1 7 4 ESE 20 0 0,0
20.01.2018 03:00:00 -2,0 -3,0 5 3 16 8 SSE 20 0 0,0
20.01.2018 02:00:00 -2,3 -3,3 3 1 7 4 S 20 0 0,0
20.01.2018 01:00:00 - - - - - - - - - -
20.01.2018 00:00:00 0,0 -2,0 5 3 14 7 E 20 0 0,0
19.01.2018 23:00:00 1,1 -0,7 3 1 10 6 E 20 0 0,0
19.01.2018 22:00:00 1,7 -0,5 7 4 19 10 WNW 20 0 0,0
19.01.2018 21:00:00 3,7 -0,3 4 2 13 7 SW 20 0 0,0
19.01.2018 20:00:00 4,7 0,2 4 2 16 8 NW 20 0 0,0
19.01.2018 19:00:00 5,5 0,4 9 5 26 14 WNW 20 0 -
19.01.2018 18:00:00 7,0 1,9 17 9 35 19 W 20 15 0,0
19.01.2018 17:00:00 8,7 2,1 19 10 43 23 W 20 60 0,0
19.01.2018 16:00:00 9,1 2,9 24 13 47 25 W 20 60 0,0
19.01.2018 15:00:00 9,9 3,0 24 13 40 22 W 20 59 0,0
19.01.2018 14:00:00 10,1 2,9 15 8 74 40 W 20 60 0,0
19.01.2018 13:00:00 9,2 2,3 15 8 29 16 W 20 60 -
19.01.2018 12:00:00 7,1 2,5 13 7 22 12 WNW 20 60 0,0
19.01.2018 11:00:00 2,5 0,0 3 2 13 7 SSW 20 60 0,0
19.01.2018 10:00:00 -2,2 -3,6 4 2 29 16 NW 20 32 0,0
19.01.2018 09:00:00 -4,2 -5,1 11 6 18 10 S 20 0 0,0
19.01.2018 08:00:00 -4,9 -6,0 3 2 8 5 ENE 20 0 0,0
19.01.2018 07:00:00 -4,8 -6,0 2 1 6 3 E 20 0 -
19.01.2018 06:00:00 -3,4 -4,8 1 1 11 6 E 20 0 0,0
19.01.2018 05:00:00 -2,6 -3,6 3 2 19 10 SE 20 0 0,0
19.01.2018 04:00:00 -2,6 -3,6 7 4 17 9 S 20 0 0,0
19.01.2018 03:00:00 -2,2 -3,3 7 4 16 8 S 20 0 0,0
19.01.2018 02:00:00 -2,0 -3,0 3 2 10 5 ESE 20 0 0,0
19.01.2018 01:00:00 -1,9 -3,0 8 4 16 8 SE 19 0 -
19.01.2018 00:00:00 -1,7 -3,0 2 1 14 8 SSE 20 0 0,0
18.01.2018 23:00:00 -0,8 -2,2 1 1 7 4 SSE 20 0 0,0
18.01.2018 22:00:00 0,0 -1,4 4 2 7 4 ESE 20 0 0,0
18.01.2018 21:00:00 0,9 -1,0 5 3 11 6 ESE 20 0 0,0
18.01.2018 20:00:00 1,9 -0,7 2 1 8 5 ENE 15 0 0,0
18.01.2018 19:00:00 4,7 -0,3 3 2 13 7 SSE 20 0 -
18.01.2018 18:00:00 8,1 0,0 5 3 13 7 W 20 14 0,0
18.01.2018 17:00:00 11,2 0,2 4 2 11 6 W 20 60 0,0
18.01.2018 16:00:00 10,7 0,4 8 5 15 8 WNW 20 60 0,0
18.01.2018 15:00:00 10,3 -1,4 9 5 15 8 WNW 20 60 0,0
18.01.2018 14:00:00 9,5 -0,7 8 4 14 7 W 20 60 0,0
18.01.2018 13:00:00 8,3 0,9 2 1 12 7 SW 20 60 -
18.01.2018 12:00:00 5,2 0,4 4 2 6 4 ENE 20 60 0,0
18.01.2018 11:00:00 1,8 -1,2 2 1 4 2 WSW 20 60 0,0
18.01.2018 10:00:00 -1,5 -2,7 0 0 5 3 N 20 30 0,0
18.01.2018 09:00:00 -4,5 -5,4 3 2 8 4 SSE 20 0 0,0
18.01.2018 08:00:00 -4,2 -5,1 2 1 6 3 W 20 0 0,0
18.01.2018 07:00:00 -4,4 -5,7 0 0 12 6 N 20 0 -
18.01.2018 06:00:00 -4,3 -5,4 0 0 4 2 N 20 0 0,0
18.01.2018 05:00:00 -4,0 -5,1 3 2 12 7 NW 20 0 0,0
18.01.2018 04:00:00 -3,4 -4,5 2 1 11 6 NE 20 0 0,0
18.01.2018 03:00:00 -2,7 -3,6 4 2 8 4 S 20 0 0,0
18.01.2018 02:00:00 -2,8 -3,9 1 1 6 3 W 20 0 0,0
18.01.2018 01:00:00 -1,9 -3,0 3 2 19 10 SE 20 0 -
18.01.2018 00:00:00 -2,0 -3,0 10 5 21 12 S 20 0 0,0
17.01.2018 23:00:00 -1,4 -2,7 7 4 16 8 S 20 0 0,0
17.01.2018 22:00:00 -0,6 -2,5 3 2 11 6 E 20 0 0,0
17.01.2018 21:00:00 0,4 -2,2 3 1 18 10 SW 20 0 0,0
17.01.2018 20:00:00 2,4 -1,7 6 3 17 9 S 20 0 0,0
17.01.2018 19:00:00 3,0 -1,7 6 3 15 8 WNW 20 0 -
17.01.2018 18:00:00 5,0 -1,7 8 5 27 14 W 20 12 0,0
17.01.2018 17:00:00 7,1 -1,4 16 9 34 18 WNW 20 60 0,0
17.01.2018 16:00:00 7,2 -1,4 22 12 36 20 WNW 20 60 0,0
17.01.2018 15:00:00 7,7 -0,5 16 9 36 19 WNW 20 57 0,0
17.01.2018 14:00:00 7,3 -1,0 16 9 36 19 NNW 20 59 0,0
17.01.2018 13:00:00 7,5 -0,5 21 11 - - WNW 20 59 -
17.01.2018 12:00:00 6,6 0,6 19 10 33 18 NW 20 34 0,0
17.01.2018 11:00:00 6,2 2,1 9 5 28 15 W 20 54 0,0
17.01.2018 10:00:00 4,7 3,6 12 7 23 12 WNW 12 1 0,0
17.01.2018 09:00:00 4,4 3,4 13 7 26 14 WNW 10 0 0,0
17.01.2018 08:00:00 4,6 3,6 12 7 31 17 W 9 0 0,0

tt = Température de l'air
td = dewpoint
ff = Vitesse du vent
fx = gusts
dd = Direction du vent
vv = visibility
sd = Ensoleillement
rr = Quantités de précipitations

stations d'obs. à proximité